sensor_id;sensor_type;location;lat;lon;timestamp;P1;durP1;ratioP1;P2;durP2;ratioP2
61471;SDS011;47337;54.068;12.114;2022-12-20T00:02:01;33.03;;;15.50;;
61471;SDS011;47337;54.068;12.114;2022-12-20T00:04:26;31.90;;;15.25;;
61471;SDS011;47337;54.068;12.114;2022-12-20T00:06:52;32.30;;;15.32;;
61471;SDS011;47337;54.068;12.114;2022-12-20T00:09:17;33.38;;;14.98;;
61471;SDS011;47337;54.068;12.114;2022-12-20T00:11:43;32.55;;;15.48;;
61471;SDS011;47337;54.068;12.114;2022-12-20T00:14:08;31.95;;;15.10;;
61471;SDS011;47337;54.068;12.114;2022-12-20T00:16:34;35.63;;;16.55;;
61471;SDS011;47337;54.068;12.114;2022-12-20T00:19:04;30.73;;;14.85;;
61471;SDS011;47337;54.068;12.114;2022-12-20T00:21:31;33.72;;;15.80;;
61471;SDS011;47337;54.068;12.114;2022-12-20T00:24:00;33.40;;;15.00;;
61471;SDS011;47337;54.068;12.114;2022-12-20T00:26:30;33.92;;;15.68;;
61471;SDS011;47337;54.068;12.114;2022-12-20T00:28:59;32.38;;;15.45;;
61471;SDS011;47337;54.068;12.114;2022-12-20T00:31:28;34.20;;;14.82;;
61471;SDS011;47337;54.068;12.114;2022-12-20T00:33:57;32.35;;;13.98;;
61471;SDS011;47337;54.068;12.114;2022-12-20T00:36:24;28.85;;;14.60;;
61471;SDS011;47337;54.068;12.114;2022-12-20T00:38:51;31.33;;;14.27;;
61471;SDS011;47337;54.068;12.114;2022-12-20T00:41:25;32.75;;;15.05;;
61471;SDS011;47337;54.068;12.114;2022-12-20T00:43:53;37.95;;;15.88;;
61471;SDS011;47337;54.068;12.114;2022-12-20T00:46:19;31.83;;;15.25;;
61471;SDS011;47337;54.068;12.114;2022-12-20T00:48:45;31.95;;;15.65;;
61471;SDS011;47337;54.068;12.114;2022-12-20T00:51:13;34.90;;;15.25;;
61471;SDS011;47337;54.068;12.114;2022-12-20T00:53:46;33.50;;;16.00;;
61471;SDS011;47337;54.068;12.114;2022-12-20T00:56:12;37.25;;;15.38;;
61471;SDS011;47337;54.068;12.114;2022-12-20T00:58:39;32.65;;;14.90;;
61471;SDS011;47337;54.068;12.114;2022-12-20T01:01:06;33.50;;;15.45;;
61471;SDS011;47337;54.068;12.114;2022-12-20T01:03:40;31.20;;;14.77;;
61471;SDS011;47337;54.068;12.114;2022-12-20T01:06:05;32.88;;;15.75;;
61471;SDS011;47337;54.068;12.114;2022-12-20T01:08:33;32.20;;;15.07;;
61471;SDS011;47337;54.068;12.114;2022-12-20T01:11:03;29.70;;;14.18;;
61471;SDS011;47337;54.068;12.114;2022-12-20T01:13:33;26.73;;;13.82;;
61471;SDS011;47337;54.068;12.114;2022-12-20T01:16:03;30.38;;;13.80;;
61471;SDS011;47337;54.068;12.114;2022-12-20T01:18:33;30.30;;;14.63;;
61471;SDS011;47337;54.068;12.114;2022-12-20T01:21:00;27.90;;;14.18;;
61471;SDS011;47337;54.068;12.114;2022-12-20T01:23:26;35.03;;;14.95;;
61471;SDS011;47337;54.068;12.114;2022-12-20T01:25:51;31.17;;;13.85;;
61471;SDS011;47337;54.068;12.114;2022-12-20T01:28:17;28.20;;;13.02;;
61471;SDS011;47337;54.068;12.114;2022-12-20T01:30:42;28.60;;;14.50;;
61471;SDS011;47337;54.068;12.114;2022-12-20T01:33:08;25.70;;;14.15;;
61471;SDS011;47337;54.068;12.114;2022-12-20T01:35:35;26.52;;;13.90;;
61471;SDS011;47337;54.068;12.114;2022-12-20T01:38:01;25.20;;;12.82;;
61471;SDS011;47337;54.068;12.114;2022-12-20T01:40:26;23.90;;;12.50;;
61471;SDS011;47337;54.068;12.114;2022-12-20T01:42:55;23.45;;;11.90;;
61471;SDS011;47337;54.068;12.114;2022-12-20T01:45:22;24.33;;;13.02;;
61471;SDS011;47337;54.068;12.114;2022-12-20T01:47:52;24.90;;;12.27;;
61471;SDS011;47337;54.068;12.114;2022-12-20T01:50:18;25.73;;;12.88;;
61471;SDS011;47337;54.068;12.114;2022-12-20T01:52:44;24.30;;;12.35;;
61471;SDS011;47337;54.068;12.114;2022-12-20T01:55:13;25.63;;;12.73;;
61471;SDS011;47337;54.068;12.114;2022-12-20T01:57:50;25.08;;;12.60;;
61471;SDS011;47337;54.068;12.114;2022-12-20T02:00:21;22.00;;;12.55;;
61471;SDS011;47337;54.068;12.114;2022-12-20T02:02:47;24.58;;;12.38;;
61471;SDS011;47337;54.068;12.114;2022-12-20T02:05:14;26.27;;;12.13;;
61471;SDS011;47337;54.068;12.114;2022-12-20T02:07:41;26.42;;;13.13;;
61471;SDS011;47337;54.068;12.114;2022-12-20T02:10:10;26.02;;;12.55;;
61471;SDS011;47337;54.068;12.114;2022-12-20T02:32:41;23.13;;;12.05;;
61471;SDS011;47337;54.068;12.114;2022-12-20T02:35:30;27.42;;;12.13;;
61471;SDS011;47337;54.068;12.114;2022-12-20T02:37:59;26.65;;;12.30;;
61471;SDS011;47337;54.068;12.114;2022-12-20T02:40:28;25.90;;;12.25;;
61471;SDS011;47337;54.068;12.114;2022-12-20T02:43:06;23.85;;;11.63;;
61471;SDS011;47337;54.068;12.114;2022-12-20T02:45:54;23.73;;;12.18;;
61471;SDS011;47337;54.068;12.114;2022-12-20T02:48:22;25.02;;;12.68;;
61471;SDS011;47337;54.068;12.114;2022-12-20T02:50:52;25.52;;;11.65;;
61471;SDS011;47337;54.068;12.114;2022-12-20T02:53:20;29.13;;;13.18;;
61471;SDS011;47337;54.068;12.114;2022-12-20T02:55:48;22.90;;;12.02;;
61471;SDS011;47337;54.068;12.114;2022-12-20T02:58:28;22.73;;;11.77;;
61471;SDS011;47337;54.068;12.114;2022-12-20T03:00:59;23.85;;;11.27;;
61471;SDS011;47337;54.068;12.114;2022-12-20T03:03:32;20.35;;;11.07;;
61471;SDS011;47337;54.068;12.114;2022-12-20T03:06:00;24.70;;;12.02;;
61471;SDS011;47337;54.068;12.114;2022-12-20T03:08:26;22.27;;;11.80;;
61471;SDS011;47337;54.068;12.114;2022-12-20T03:10:54;25.17;;;11.68;;
61471;SDS011;47337;54.068;12.114;2022-12-20T03:13:20;22.90;;;11.35;;
61471;SDS011;47337;54.068;12.114;2022-12-20T03:15:47;24.85;;;11.23;;
61471;SDS011;47337;54.068;12.114;2022-12-20T03:18:13;21.95;;;12.25;;
61471;SDS011;47337;54.068;12.114;2022-12-20T03:20:38;19.85;;;10.55;;
61471;SDS011;47337;54.068;12.114;2022-12-20T03:23:04;22.42;;;11.75;;
61471;SDS011;47337;54.068;12.114;2022-12-20T03:25:32;22.27;;;11.75;;
61471;SDS011;47337;54.068;12.114;2022-12-20T03:27:57;21.88;;;11.65;;
61471;SDS011;47337;54.068;12.114;2022-12-20T03:30:22;20.77;;;11.63;;
61471;SDS011;47337;54.068;12.114;2022-12-20T03:32:50;20.60;;;10.57;;
61471;SDS011;47337;54.068;12.114;2022-12-20T03:35:15;21.25;;;11.00;;
61471;SDS011;47337;54.068;12.114;2022-12-20T03:37:41;22.88;;;11.38;;
61471;SDS011;47337;54.068;12.114;2022-12-20T03:40:07;23.10;;;10.70;;
61471;SDS011;47337;54.068;12.114;2022-12-20T03:42:35;22.98;;;10.35;;
61471;SDS011;47337;54.068;12.114;2022-12-20T03:45:01;21.58;;;10.80;;
61471;SDS011;47337;54.068;12.114;2022-12-20T03:47:27;22.67;;;11.23;;
61471;SDS011;47337;54.068;12.114;2022-12-20T03:49:53;20.38;;;10.50;;
61471;SDS011;47337;54.068;12.114;2022-12-20T03:52:18;22.02;;;10.75;;
61471;SDS011;47337;54.068;12.114;2022-12-20T03:54:44;22.55;;;11.25;;
61471;SDS011;47337;54.068;12.114;2022-12-20T03:57:11;22.15;;;11.70;;
61471;SDS011;47337;54.068;12.114;2022-12-20T03:59:37;23.20;;;12.32;;
61471;SDS011;47337;54.068;12.114;2022-12-20T04:02:02;21.55;;;11.57;;
61471;SDS011;47337;54.068;12.114;2022-12-20T04:04:30;21.13;;;11.85;;
61471;SDS011;47337;54.068;12.114;2022-12-20T04:06:56;24.33;;;11.32;;
61471;SDS011;47337;54.068;12.114;2022-12-20T04:09:21;21.33;;;11.45;;
61471;SDS011;47337;54.068;12.114;2022-12-20T04:11:46;23.13;;;12.63;;
61471;SDS011;47337;54.068;12.114;2022-12-20T04:14:12;24.10;;;12.38;;
61471;SDS011;47337;54.068;12.114;2022-12-20T04:16:37;25.85;;;12.07;;
61471;SDS011;47337;54.068;12.114;2022-12-20T04:19:03;23.48;;;11.77;;
61471;SDS011;47337;54.068;12.114;2022-12-20T04:21:30;23.30;;;11.68;;
61471;SDS011;47337;54.068;12.114;2022-12-20T04:23:58;24.15;;;12.48;;
61471;SDS011;47337;54.068;12.114;2022-12-20T04:26:24;21.95;;;12.18;;
61471;SDS011;47337;54.068;12.114;2022-12-20T04:28:50;24.42;;;12.10;;
61471;SDS011;47337;54.068;12.114;2022-12-20T04:31:16;21.60;;;11.38;;
61471;SDS011;47337;54.068;12.114;2022-12-20T04:33:41;23.75;;;11.13;;
61471;SDS011;47337;54.068;12.114;2022-12-20T04:36:07;19.90;;;11.43;;
61471;SDS011;47337;54.068;12.114;2022-12-20T04:38:33;23.40;;;11.25;;
61471;SDS011;47337;54.068;12.114;2022-12-20T04:40:58;23.02;;;11.05;;
61471;SDS011;47337;54.068;12.114;2022-12-20T04:43:24;19.25;;;10.18;;
61471;SDS011;47337;54.068;12.114;2022-12-20T04:45:50;24.35;;;11.35;;
61471;SDS011;47337;54.068;12.114;2022-12-20T04:48:17;22.83;;;10.70;;
61471;SDS011;47337;54.068;12.114;2022-12-20T04:50:47;22.67;;;11.82;;
61471;SDS011;47337;54.068;12.114;2022-12-20T04:53:13;22.80;;;11.10;;
61471;SDS011;47337;54.068;12.114;2022-12-20T04:55:57;25.50;;;11.75;;
61471;SDS011;47337;54.068;12.114;2022-12-20T04:58:24;26.52;;;12.68;;
61471;SDS011;47337;54.068;12.114;2022-12-20T05:00:49;22.73;;;12.00;;
61471;SDS011;47337;54.068;12.114;2022-12-20T05:03:16;25.15;;;11.82;;
61471;SDS011;47337;54.068;12.114;2022-12-20T05:05:45;23.60;;;12.27;;
61471;SDS011;47337;54.068;12.114;2022-12-20T05:08:11;24.42;;;12.75;;
61471;SDS011;47337;54.068;12.114;2022-12-20T05:10:38;23.40;;;13.13;;
61471;SDS011;47337;54.068;12.114;2022-12-20T05:13:06;29.88;;;14.35;;
61471;SDS011;47337;54.068;12.114;2022-12-20T05:15:32;25.27;;;12.65;;
61471;SDS011;47337;54.068;12.114;2022-12-20T05:17:57;24.70;;;12.27;;
61471;SDS011;47337;54.068;12.114;2022-12-20T05:20:26;23.58;;;12.38;;
61471;SDS011;47337;54.068;12.114;2022-12-20T05:22:52;23.17;;;11.57;;
61471;SDS011;47337;54.068;12.114;2022-12-20T05:25:41;20.85;;;11.25;;
61471;SDS011;47337;54.068;12.114;2022-12-20T05:28:28;25.65;;;12.15;;
61471;SDS011;47337;54.068;12.114;2022-12-20T05:30:55;21.88;;;12.13;;
61471;SDS011;47337;54.068;12.114;2022-12-20T05:33:20;24.63;;;12.02;;
61471;SDS011;47337;54.068;12.114;2022-12-20T05:35:46;25.50;;;11.98;;
61471;SDS011;47337;54.068;12.114;2022-12-20T05:38:13;23.92;;;13.13;;
61471;SDS011;47337;54.068;12.114;2022-12-20T05:40:39;24.42;;;11.98;;
61471;SDS011;47337;54.068;12.114;2022-12-20T05:43:05;22.70;;;11.85;;
61471;SDS011;47337;54.068;12.114;2022-12-20T05:45:33;28.77;;;12.90;;
61471;SDS011;47337;54.068;12.114;2022-12-20T05:47:59;22.33;;;11.68;;
61471;SDS011;47337;54.068;12.114;2022-12-20T05:50:27;24.42;;;13.45;;
61471;SDS011;47337;54.068;12.114;2022-12-20T05:52:53;26.40;;;11.95;;
61471;SDS011;47337;54.068;12.114;2022-12-20T05:55:18;21.88;;;11.02;;
61471;SDS011;47337;54.068;12.114;2022-12-20T05:57:48;24.13;;;12.45;;
61471;SDS011;47337;54.068;12.114;2022-12-20T06:00:14;22.73;;;11.50;;
61471;SDS011;47337;54.068;12.114;2022-12-20T06:02:40;25.38;;;11.95;;
61471;SDS011;47337;54.068;12.114;2022-12-20T06:05:05;24.00;;;11.70;;
61471;SDS011;47337;54.068;12.114;2022-12-20T06:07:34;23.20;;;11.93;;
61471;SDS011;47337;54.068;12.114;2022-12-20T06:09:59;24.65;;;12.10;;
61471;SDS011;47337;54.068;12.114;2022-12-20T06:12:25;21.33;;;12.35;;
61471;SDS011;47337;54.068;12.114;2022-12-20T06:14:50;22.48;;;11.07;;
61471;SDS011;47337;54.068;12.114;2022-12-20T06:17:15;24.05;;;11.95;;
61471;SDS011;47337;54.068;12.114;2022-12-20T06:19:41;24.20;;;12.30;;
61471;SDS011;47337;54.068;12.114;2022-12-20T06:22:07;21.35;;;11.48;;
61471;SDS011;47337;54.068;12.114;2022-12-20T06:24:33;21.60;;;11.07;;
61471;SDS011;47337;54.068;12.114;2022-12-20T06:26:59;22.35;;;11.88;;
61471;SDS011;47337;54.068;12.114;2022-12-20T06:29:26;24.83;;;12.40;;
61471;SDS011;47337;54.068;12.114;2022-12-20T06:31:51;19.33;;;12.07;;
61471;SDS011;47337;54.068;12.114;2022-12-20T06:34:17;22.52;;;11.85;;
61471;SDS011;47337;54.068;12.114;2022-12-20T06:36:42;20.85;;;11.55;;
61471;SDS011;47337;54.068;12.114;2022-12-20T06:39:10;23.65;;;11.63;;
61471;SDS011;47337;54.068;12.114;2022-12-20T06:41:36;24.02;;;11.45;;
61471;SDS011;47337;54.068;12.114;2022-12-20T06:44:02;21.77;;;12.00;;
61471;SDS011;47337;54.068;12.114;2022-12-20T06:46:27;18.77;;;11.20;;
61471;SDS011;47337;54.068;12.114;2022-12-20T06:48:54;23.30;;;12.48;;
61471;SDS011;47337;54.068;12.114;2022-12-20T06:51:23;23.17;;;12.55;;
61471;SDS011;47337;54.068;12.114;2022-12-20T06:53:49;23.80;;;11.93;;
61471;SDS011;47337;54.068;12.114;2022-12-20T06:56:17;25.23;;;13.18;;
61471;SDS011;47337;54.068;12.114;2022-12-20T06:58:45;25.20;;;12.32;;
61471;SDS011;47337;54.068;12.114;2022-12-20T07:01:15;25.70;;;12.85;;
61471;SDS011;47337;54.068;12.114;2022-12-20T07:03:40;26.75;;;13.20;;
61471;SDS011;47337;54.068;12.114;2022-12-20T07:06:05;25.35;;;12.57;;
61471;SDS011;47337;54.068;12.114;2022-12-20T07:08:31;25.67;;;12.93;;
61471;SDS011;47337;54.068;12.114;2022-12-20T07:11:02;27.25;;;12.98;;
61471;SDS011;47337;54.068;12.114;2022-12-20T07:13:29;29.45;;;13.45;;
61471;SDS011;47337;54.068;12.114;2022-12-20T07:15:58;25.70;;;13.82;;
61471;SDS011;47337;54.068;12.114;2022-12-20T07:18:27;24.02;;;12.68;;
61471;SDS011;47337;54.068;12.114;2022-12-20T07:20:53;24.48;;;12.85;;
61471;SDS011;47337;54.068;12.114;2022-12-20T07:23:18;27.65;;;14.00;;
61471;SDS011;47337;54.068;12.114;2022-12-20T07:25:51;29.55;;;13.88;;
61471;SDS011;47337;54.068;12.114;2022-12-20T07:28:19;26.80;;;13.25;;
61471;SDS011;47337;54.068;12.114;2022-12-20T07:30:44;31.63;;;14.70;;
61471;SDS011;47337;54.068;12.114;2022-12-20T07:33:10;27.73;;;13.77;;
61471;SDS011;47337;54.068;12.114;2022-12-20T07:35:37;26.05;;;13.75;;
61471;SDS011;47337;54.068;12.114;2022-12-20T07:38:03;28.13;;;13.20;;
61471;SDS011;47337;54.068;12.114;2022-12-20T07:40:28;26.33;;;13.23;;
61471;SDS011;47337;54.068;12.114;2022-12-20T07:42:54;30.45;;;13.27;;
61471;SDS011;47337;54.068;12.114;2022-12-20T07:45:19;28.63;;;13.23;;
61471;SDS011;47337;54.068;12.114;2022-12-20T07:47:44;31.67;;;13.90;;
61471;SDS011;47337;54.068;12.114;2022-12-20T07:50:10;25.45;;;13.10;;
61471;SDS011;47337;54.068;12.114;2022-12-20T07:52:35;32.35;;;14.68;;
61471;SDS011;47337;54.068;12.114;2022-12-20T07:55:04;25.52;;;12.65;;
61471;SDS011;47337;54.068;12.114;2022-12-20T07:57:42;24.17;;;13.02;;
61471;SDS011;47337;54.068;12.114;2022-12-20T08:00:17;30.70;;;13.35;;
61471;SDS011;47337;54.068;12.114;2022-12-20T08:02:47;28.02;;;13.57;;
61471;SDS011;47337;54.068;12.114;2022-12-20T08:05:18;23.33;;;12.60;;
61471;SDS011;47337;54.068;12.114;2022-12-20T08:07:44;27.50;;;13.85;;
61471;SDS011;47337;54.068;12.114;2022-12-20T08:10:11;28.75;;;13.35;;
61471;SDS011;47337;54.068;12.114;2022-12-20T08:12:38;29.52;;;13.63;;
61471;SDS011;47337;54.068;12.114;2022-12-20T08:15:04;24.55;;;12.48;;
61471;SDS011;47337;54.068;12.114;2022-12-20T08:17:32;30.27;;;12.90;;
61471;SDS011;47337;54.068;12.114;2022-12-20T08:20:01;25.80;;;12.85;;
61471;SDS011;47337;54.068;12.114;2022-12-20T08:22:31;24.65;;;13.57;;
61471;SDS011;47337;54.068;12.114;2022-12-20T08:24:59;26.70;;;12.70;;
61471;SDS011;47337;54.068;12.114;2022-12-20T08:27:25;28.60;;;13.65;;
61471;SDS011;47337;54.068;12.114;2022-12-20T08:29:50;23.83;;;12.90;;
61471;SDS011;47337;54.068;12.114;2022-12-20T08:32:16;26.42;;;13.50;;
61471;SDS011;47337;54.068;12.114;2022-12-20T08:34:44;26.35;;;12.25;;
61471;SDS011;47337;54.068;12.114;2022-12-20T08:37:09;25.98;;;12.93;;
61471;SDS011;47337;54.068;12.114;2022-12-20T08:39:35;26.35;;;13.48;;
61471;SDS011;47337;54.068;12.114;2022-12-20T08:42:03;27.65;;;12.98;;
61471;SDS011;47337;54.068;12.114;2022-12-20T08:44:28;24.33;;;12.70;;
61471;SDS011;47337;54.068;12.114;2022-12-20T08:46:56;29.33;;;13.98;;
61471;SDS011;47337;54.068;12.114;2022-12-20T08:49:21;23.30;;;13.05;;
61471;SDS011;47337;54.068;12.114;2022-12-20T08:51:47;27.63;;;13.07;;
61471;SDS011;47337;54.068;12.114;2022-12-20T08:54:14;22.48;;;12.32;;
61471;SDS011;47337;54.068;12.114;2022-12-20T08:56:41;22.58;;;12.27;;
61471;SDS011;47337;54.068;12.114;2022-12-20T08:59:07;26.52;;;12.65;;
61471;SDS011;47337;54.068;12.114;2022-12-20T09:01:32;26.42;;;12.80;;
61471;SDS011;47337;54.068;12.114;2022-12-20T09:03:58;22.30;;;12.70;;
61471;SDS011;47337;54.068;12.114;2022-12-20T09:06:24;23.80;;;12.48;;
61471;SDS011;47337;54.068;12.114;2022-12-20T09:08:52;25.13;;;13.02;;
61471;SDS011;47337;54.068;12.114;2022-12-20T09:11:20;25.75;;;12.15;;
61471;SDS011;47337;54.068;12.114;2022-12-20T09:13:48;24.08;;;12.75;;
61471;SDS011;47337;54.068;12.114;2022-12-20T09:16:16;24.67;;;12.80;;
61471;SDS011;47337;54.068;12.114;2022-12-20T09:18:46;25.40;;;12.98;;
61471;SDS011;47337;54.068;12.114;2022-12-20T09:21:13;28.58;;;13.40;;
61471;SDS011;47337;54.068;12.114;2022-12-20T09:23:39;23.67;;;12.82;;
61471;SDS011;47337;54.068;12.114;2022-12-20T09:26:05;24.35;;;12.48;;
61471;SDS011;47337;54.068;12.114;2022-12-20T09:28:34;24.95;;;13.13;;
61471;SDS011;47337;54.068;12.114;2022-12-20T09:31:00;25.70;;;12.65;;
61471;SDS011;47337;54.068;12.114;2022-12-20T09:33:26;23.65;;;12.55;;
61471;SDS011;47337;54.068;12.114;2022-12-20T09:35:52;27.90;;;14.60;;
61471;SDS011;47337;54.068;12.114;2022-12-20T09:38:18;23.08;;;12.30;;
61471;SDS011;47337;54.068;12.114;2022-12-20T09:40:44;23.27;;;11.90;;
61471;SDS011;47337;54.068;12.114;2022-12-20T09:43:13;26.60;;;13.30;;
61471;SDS011;47337;54.068;12.114;2022-12-20T09:45:40;22.73;;;11.68;;
61471;SDS011;47337;54.068;12.114;2022-12-20T09:48:08;22.33;;;11.98;;
61471;SDS011;47337;54.068;12.114;2022-12-20T09:56:00;19.08;;;11.05;;
61471;SDS011;47337;54.068;12.114;2022-12-20T10:00:58;24.05;;;11.43;;
61471;SDS011;47337;54.068;12.114;2022-12-20T10:03:34;22.70;;;11.77;;
61471;SDS011;47337;54.068;12.114;2022-12-20T10:06:12;20.95;;;11.15;;
61471;SDS011;47337;54.068;12.114;2022-12-20T10:09:02;20.38;;;10.90;;
61471;SDS011;47337;54.068;12.114;2022-12-20T10:16:57;19.67;;;9.82;;
61471;SDS011;47337;54.068;12.114;2022-12-20T10:22:37;17.40;;;10.27;;
61471;SDS011;47337;54.068;12.114;2022-12-20T10:25:16;18.40;;;10.52;;
61471;SDS011;47337;54.068;12.114;2022-12-20T10:27:42;21.05;;;11.30;;
61471;SDS011;47337;54.068;12.114;2022-12-20T10:30:12;18.83;;;10.80;;
61471;SDS011;47337;54.068;12.114;2022-12-20T10:32:44;19.55;;;10.82;;
61471;SDS011;47337;54.068;12.114;2022-12-20T10:40:37;17.27;;;9.70;;
61471;SDS011;47337;54.068;12.114;2022-12-20T10:43:13;19.30;;;10.10;;
61471;SDS011;47337;54.068;12.114;2022-12-20T10:45:41;18.88;;;10.52;;
61471;SDS011;47337;54.068;12.114;2022-12-20T10:53:48;21.03;;;10.73;;
61471;SDS011;47337;54.068;12.114;2022-12-20T10:56:18;22.23;;;10.30;;
61471;SDS011;47337;54.068;12.114;2022-12-20T10:58:53;17.33;;;9.90;;
61471;SDS011;47337;54.068;12.114;2022-12-20T11:01:33;18.58;;;10.25;;
61471;SDS011;47337;54.068;12.114;2022-12-20T11:04:01;16.83;;;9.65;;
61471;SDS011;47337;54.068;12.114;2022-12-20T11:06:44;17.42;;;9.35;;
61471;SDS011;47337;54.068;12.114;2022-12-20T11:14:40;17.20;;;9.30;;
61471;SDS011;47337;54.068;12.114;2022-12-20T11:56:17;15.40;;;8.30;;
61471;SDS011;47337;54.068;12.114;2022-12-20T11:58:54;14.35;;;8.10;;
61471;SDS011;47337;54.068;12.114;2022-12-20T12:01:25;14.93;;;8.13;;
61471;SDS011;47337;54.068;12.114;2022-12-20T12:07:01;13.88;;;8.57;;
61471;SDS011;47337;54.068;12.114;2022-12-20T12:09:40;11.75;;;6.85;;
61471;SDS011;47337;54.068;12.114;2022-12-20T12:25:55;12.18;;;7.18;;
61471;SDS011;47337;54.068;12.114;2022-12-20T12:28:23;10.88;;;7.05;;
61471;SDS011;47337;54.068;12.114;2022-12-20T12:31:22;16.65;;;8.00;;
61471;SDS011;47337;54.068;12.114;2022-12-20T12:33:47;14.85;;;7.80;;
61471;SDS011;47337;54.068;12.114;2022-12-20T12:41:34;11.50;;;7.53;;
61471;SDS011;47337;54.068;12.114;2022-12-20T12:47:46;11.90;;;6.93;;
61471;SDS011;47337;54.068;12.114;2022-12-20T12:50:02;11.65;;;6.95;;
61471;SDS011;47337;54.068;12.114;2022-12-20T12:54:58;11.90;;;7.20;;
61471;SDS011;47337;54.068;12.114;2022-12-20T12:57:23;12.20;;;7.07;;
61471;SDS011;47337;54.068;12.114;2022-12-20T12:59:49;11.73;;;7.20;;
61471;SDS011;47337;54.068;12.114;2022-12-20T13:10:00;11.57;;;7.13;;
61471;SDS011;47337;54.068;12.114;2022-12-20T13:20:21;12.10;;;6.88;;
61471;SDS011;47337;54.068;12.114;2022-12-20T13:25:32;12.75;;;6.60;;
61471;SDS011;47337;54.068;12.114;2022-12-20T13:30:42;13.90;;;7.60;;
61471;SDS011;47337;54.068;12.114;2022-12-20T13:33:16;12.63;;;7.43;;
61471;SDS011;47337;54.068;12.114;2022-12-20T13:49:31;13.23;;;7.00;;
61471;SDS011;47337;54.068;12.114;2022-12-20T13:52:05;11.55;;;6.88;;
61471;SDS011;47337;54.068;12.114;2022-12-20T13:54:47;12.95;;;7.63;;
61471;SDS011;47337;54.068;12.114;2022-12-20T13:57:25;14.68;;;7.30;;
61471;SDS011;47337;54.068;12.114;2022-12-20T14:00:05;13.10;;;7.93;;
61471;SDS011;47337;54.068;12.114;2022-12-20T14:02:42;15.65;;;7.72;;
61471;SDS011;47337;54.068;12.114;2022-12-20T14:05:24;13.05;;;7.70;;
61471;SDS011;47337;54.068;12.114;2022-12-20T14:07:58;11.80;;;7.55;;
61471;SDS011;47337;54.068;12.114;2022-12-20T14:10:28;16.35;;;8.05;;
61471;SDS011;47337;54.068;12.114;2022-12-20T14:12:54;16.00;;;8.00;;
61471;SDS011;47337;54.068;12.114;2022-12-20T14:17:46;14.45;;;7.95;;
61471;SDS011;47337;54.068;12.114;2022-12-20T14:25:33;13.50;;;8.27;;
61471;SDS011;47337;54.068;12.114;2022-12-20T14:27:59;15.75;;;7.75;;
61471;SDS011;47337;54.068;12.114;2022-12-20T14:30:25;13.20;;;8.40;;
61471;SDS011;47337;54.068;12.114;2022-12-20T14:32:58;12.68;;;7.50;;
61471;SDS011;47337;54.068;12.114;2022-12-20T14:35:24;14.88;;;8.05;;
61471;SDS011;47337;54.068;12.114;2022-12-20T14:37:57;12.80;;;7.88;;
61471;SDS011;47337;54.068;12.114;2022-12-20T14:40:24;13.27;;;7.40;;
61471;SDS011;47337;54.068;12.114;2022-12-20T14:42:50;15.10;;;7.57;;
61471;SDS011;47337;54.068;12.114;2022-12-20T14:45:18;15.57;;;8.23;;
61471;SDS011;47337;54.068;12.114;2022-12-20T14:50:22;16.05;;;8.75;;
61471;SDS011;47337;54.068;12.114;2022-12-20T14:52:51;14.68;;;8.10;;
61471;SDS011;47337;54.068;12.114;2022-12-20T14:55:24;14.80;;;8.18;;
61471;SDS011;47337;54.068;12.114;2022-12-20T14:58:01;13.57;;;8.23;;
61471;SDS011;47337;54.068;12.114;2022-12-20T15:00:54;15.60;;;8.18;;
61471;SDS011;47337;54.068;12.114;2022-12-20T15:03:47;14.27;;;7.47;;
61471;SDS011;47337;54.068;12.114;2022-12-20T15:06:29;14.90;;;7.50;;
61471;SDS011;47337;54.068;12.114;2022-12-20T15:08:57;15.93;;;8.10;;
61471;SDS011;47337;54.068;12.114;2022-12-20T15:11:25;15.90;;;8.32;;
61471;SDS011;47337;54.068;12.114;2022-12-20T15:13:51;11.82;;;7.57;;
61471;SDS011;47337;54.068;12.114;2022-12-20T15:18:56;14.60;;;8.25;;
61471;SDS011;47337;54.068;12.114;2022-12-20T15:23:54;16.35;;;8.60;;
61471;SDS011;47337;54.068;12.114;2022-12-20T15:26:22;19.70;;;9.27;;
61471;SDS011;47337;54.068;12.114;2022-12-20T15:28:49;16.17;;;8.57;;
61471;SDS011;47337;54.068;12.114;2022-12-20T15:31:15;17.83;;;9.15;;
61471;SDS011;47337;54.068;12.114;2022-12-20T15:33:43;14.02;;;8.40;;
61471;SDS011;47337;54.068;12.114;2022-12-20T15:36:14;18.15;;;8.30;;
61471;SDS011;47337;54.068;12.114;2022-12-20T15:38:40;15.50;;;8.73;;
61471;SDS011;47337;54.068;12.114;2022-12-20T15:41:07;13.02;;;7.97;;
61471;SDS011;47337;54.068;12.114;2022-12-20T15:43:46;18.40;;;8.98;;
61471;SDS011;47337;54.068;12.114;2022-12-20T15:46:14;14.80;;;8.75;;
61471;SDS011;47337;54.068;12.114;2022-12-20T15:48:39;15.25;;;7.95;;
61471;SDS011;47337;54.068;12.114;2022-12-20T15:51:12;15.60;;;8.45;;
61471;SDS011;47337;54.068;12.114;2022-12-20T15:53:41;13.98;;;8.75;;
61471;SDS011;47337;54.068;12.114;2022-12-20T15:56:07;14.68;;;8.55;;
61471;SDS011;47337;54.068;12.114;2022-12-20T15:58:42;14.40;;;9.05;;
61471;SDS011;47337;54.068;12.114;2022-12-20T16:01:12;16.90;;;8.60;;
61471;SDS011;47337;54.068;12.114;2022-12-20T16:06:12;17.73;;;9.15;;
61471;SDS011;47337;54.068;12.114;2022-12-20T16:08:38;13.20;;;7.50;;
61471;SDS011;47337;54.068;12.114;2022-12-20T16:11:09;15.10;;;8.75;;
61471;SDS011;47337;54.068;12.114;2022-12-20T16:13:43;12.63;;;7.50;;
61471;SDS011;47337;54.068;12.114;2022-12-20T16:16:12;15.77;;;8.18;;
61471;SDS011;47337;54.068;12.114;2022-12-20T16:18:40;15.07;;;8.50;;
61471;SDS011;47337;54.068;12.114;2022-12-20T16:21:09;15.98;;;7.38;;
61471;SDS011;47337;54.068;12.114;2022-12-20T16:23:48;12.10;;;7.32;;
61471;SDS011;47337;54.068;12.114;2022-12-20T16:26:18;15.18;;;7.70;;
61471;SDS011;47337;54.068;12.114;2022-12-20T16:28:47;15.13;;;7.35;;
61471;SDS011;47337;54.068;12.114;2022-12-20T16:34:02;15.32;;;7.82;;
61471;SDS011;47337;54.068;12.114;2022-12-20T16:36:29;17.30;;;8.57;;
61471;SDS011;47337;54.068;12.114;2022-12-20T16:38:56;16.75;;;8.55;;
61471;SDS011;47337;54.068;12.114;2022-12-20T16:41:22;16.90;;;8.82;;
61471;SDS011;47337;54.068;12.114;2022-12-20T16:43:52;15.55;;;8.38;;
61471;SDS011;47337;54.068;12.114;2022-12-20T16:46:22;17.35;;;8.70;;
61471;SDS011;47337;54.068;12.114;2022-12-20T16:48:50;16.05;;;8.85;;
61471;SDS011;47337;54.068;12.114;2022-12-20T16:53:52;16.45;;;9.70;;
61471;SDS011;47337;54.068;12.114;2022-12-20T16:56:31;18.23;;;9.45;;
61471;SDS011;47337;54.068;12.114;2022-12-20T16:58:57;15.95;;;8.95;;
61471;SDS011;47337;54.068;12.114;2022-12-20T17:01:24;15.35;;;8.85;;
61471;SDS011;47337;54.068;12.114;2022-12-20T17:03:56;16.50;;;9.10;;
61471;SDS011;47337;54.068;12.114;2022-12-20T17:06:22;15.57;;;8.95;;
61471;SDS011;47337;54.068;12.114;2022-12-20T17:08:47;20.90;;;10.68;;
61471;SDS011;47337;54.068;12.114;2022-12-20T17:11:14;19.60;;;9.98;;
61471;SDS011;47337;54.068;12.114;2022-12-20T17:13:42;17.77;;;9.93;;
61471;SDS011;47337;54.068;12.114;2022-12-20T17:16:11;19.27;;;9.45;;
61471;SDS011;47337;54.068;12.114;2022-12-20T17:18:39;15.30;;;9.95;;
61471;SDS011;47337;54.068;12.114;2022-12-20T17:24:03;21.02;;;9.80;;